Time;durP1;ratioP1;P1;durP2;ratioP2;P2;SDS_P1;SDS_P2;PMS_P1;PMS_P2;Temp;Humidity;BMP_temperature;BMP_pressure;BME280_temperature;BME280_humidity;BME280_pressure;Samples;Min_cycle;Max_cycle;Signal;HPM_P1;HPM_P2
2022/05/11 00:00:09;;;;;;;10.77;4.53;;;;;;;;;;5100959;28;20034;-73
2022/05/11 00:02:35;;;;;;;8.93;4.10;;;;;;;;;;5096191;28;20065;-73
2022/05/11 00:05:01;;;;;;;9.57;4.68;;;;;;;;;;5098163;28;20036;-73
2022/05/11 00:07:27;;;;;;;7.78;4.32;;;;;;;;;;5104667;27;20031;-75
2022/05/11 00:09:53;;;;;;;10.27;4.88;;;;;;;;;;5099244;27;20498;-73
2022/05/11 00:12:19;;;;;;;6.75;4.13;;;;;;;;;;5105999;27;20023;-73
2022/05/11 00:14:46;;;;;;;8.85;4.38;;;;;;;;;;5101759;28;20024;-73
2022/05/11 00:17:12;;;;;;;14.52;5.88;;;;;;;;;;5103452;28;20031;-74
2022/05/11 00:19:38;;;;;;;9.82;5.65;;;;;;;;;;5106334;27;20100;-73
2022/05/11 00:22:04;;;;;;;10.38;5.45;;;;;;;;;;5102874;28;20151;-74
2022/05/11 00:24:30;;;;;;;9.10;4.85;;;;;;;;;;5097667;28;20028;-73
2022/05/11 00:26:56;;;;;;;8.93;4.68;;;;;;;;;;5098993;28;20050;-74
2022/05/11 00:29:22;;;;;;;9.63;4.82;;;;;;;;;;5104451;28;20042;-73
2022/05/11 00:31:48;;;;;;;8.98;5.15;;;;;;;;;;5100503;28;20039;-74
2022/05/11 00:34:14;;;;;;;5.95;5.07;;;;;;;;;;5097367;28;20471;-73
2022/05/11 00:36:41;;;;;;;10.68;5.63;;;;;;;;;;5099198;28;20024;-73
2022/05/11 00:39:07;;;;;;;9.02;4.60;;;;;;;;;;5099847;28;20099;-73
2022/05/11 00:41:33;;;;;;;7.57;4.43;;;;;;;;;;5100655;28;20024;-73
2022/05/11 00:44:01;;;;;;;9.50;4.90;;;;;;;;;;5101238;28;20398;-73
2022/05/11 00:46:36;;;;;;;5.68;4.40;;;;;;;;;;5101836;28;20031;-73
2022/05/11 00:52:07;;;;;;;9.00;5.05;;;;;;;;;;5097711;28;20758;-74
2022/05/11 00:54:35;;;;;;;13.63;5.53;;;;;;;;;;5097278;28;20028;-73
2022/05/11 00:57:03;;;;;;;11.43;4.72;;;;;;;;;;5092428;28;20089;-75
2022/05/11 00:59:34;;;;;;;7.20;4.68;;;;;;;;;;5097666;28;20027;-74
2022/05/11 01:02:04;;;;;;;7.60;5.03;;;;;;;;;;5089515;28;20034;-74
2022/05/11 01:04:31;;;;;;;10.82;5.35;;;;;;;;;;5093213;28;20031;-74
2022/05/11 01:06:58;;;;;;;10.38;5.20;;;;;;;;;;5090289;28;20820;-74
2022/05/11 01:09:24;;;;;;;9.40;5.30;;;;;;;;;;5091689;28;20032;-74
2022/05/11 01:11:52;;;;;;;9.63;5.03;;;;;;;;;;5090785;28;20020;-75
2022/05/11 01:14:22;;;;;;;8.30;4.90;;;;;;;;;;5094294;28;20028;-78
2022/05/11 01:16:48;;;;;;;8.90;4.60;;;;;;;;;;5089746;28;20102;-74
2022/05/11 01:19:19;;;;;;;12.63;5.35;;;;;;;;;;5090496;27;20098;-73
2022/05/11 01:21:52;;;;;;;10.33;5.10;;;;;;;;;;5090632;28;20015;-74
2022/05/11 01:24:33;;;;;;;9.93;5.47;;;;;;;;;;5091494;28;20038;-73
2022/05/11 01:26:59;;;;;;;9.65;4.85;;;;;;;;;;5090520;28;20024;-74
2022/05/11 01:29:25;;;;;;;10.23;5.75;;;;;;;;;;5090521;27;20032;-75
2022/05/11 01:31:51;;;;;;;9.27;4.80;;;;;;;;;;5088164;28;20020;-73
2022/05/11 01:34:20;;;;;;;11.65;5.32;;;;;;;;;;5093655;28;20019;-76
2022/05/11 01:36:48;;;;;;;7.25;4.70;;;;;;;;;;5089573;28;20031;-78
2022/05/11 01:39:14;;;;;;;6.38;4.93;;;;;;;;;;5097106;28;20788;-74
2022/05/11 01:41:42;;;;;;;10.23;4.47;;;;;;;;;;5089987;28;20527;-74
2022/05/11 01:44:10;;;;;;;10.70;5.60;;;;;;;;;;5096255;27;20020;-77
2022/05/11 01:46:36;;;;;;;7.50;4.63;;;;;;;;;;5093383;28;20034;-73
2022/05/11 01:49:03;;;;;;;8.73;4.93;;;;;;;;;;5090561;28;20028;-74
2022/05/11 01:51:29;;;;;;;7.97;4.57;;;;;;;;;;5094519;28;20027;-75
2022/05/11 01:53:55;;;;;;;8.38;5.40;;;;;;;;;;5086322;28;20028;-74
2022/05/11 01:56:23;;;;;;;10.43;5.88;;;;;;;;;;5093901;28;20200;-74
2022/05/11 01:58:50;;;;;;;11.57;5.00;;;;;;;;;;5087617;28;20503;-74
2022/05/11 02:01:18;;;;;;;11.10;5.20;;;;;;;;;;5091878;28;20505;-78
2022/05/11 02:03:44;;;;;;;8.82;5.30;;;;;;;;;;5088863;28;20110;-74
2022/05/11 02:08:55;;;;;;;7.10;4.97;;;;;;;;;;5094312;28;20114;-73
2022/05/11 02:11:21;;;;;;;10.80;5.38;;;;;;;;;;5102788;28;20032;-74
2022/05/11 02:13:48;;;;;;;10.52;5.50;;;;;;;;;;5102062;28;20404;-73
2022/05/11 02:16:14;;;;;;;9.57;5.13;;;;;;;;;;5101425;28;20031;-75
2022/05/11 02:18:41;;;;;;;8.52;5.32;;;;;;;;;;5097921;28;20131;-75
2022/05/11 02:21:08;;;;;;;8.65;5.03;;;;;;;;;;5081195;28;20739;-80
2022/05/11 02:23:35;;;;;;;8.48;4.93;;;;;;;;;;5080690;28;20028;-74
2022/05/11 02:26:02;;;;;;;9.95;4.80;;;;;;;;;;5082531;28;20036;-73
2022/05/11 02:28:28;;;;;;;10.18;5.30;;;;;;;;;;5082068;28;20066;-76
2022/05/11 02:30:57;;;;;;;10.65;5.38;;;;;;;;;;5083622;28;20031;-79
2022/05/11 02:33:24;;;;;;;11.90;5.18;;;;;;;;;;5082213;28;20039;-75
2022/05/11 02:35:51;;;;;;;11.13;6.00;;;;;;;;;;5081083;28;20035;-74
2022/05/11 02:38:19;;;;;;;10.50;5.32;;;;;;;;;;5082463;28;20086;-74
2022/05/11 02:40:47;;;;;;;6.78;5.13;;;;;;;;;;5082590;28;20047;-74
2022/05/11 02:43:14;;;;;;;10.85;5.20;;;;;;;;;;5082392;28;20031;-77
2022/05/11 02:45:41;;;;;;;8.00;5.07;;;;;;;;;;5079614;28;20070;-75
2022/05/11 02:48:08;;;;;;;8.38;4.97;;;;;;;;;;5100860;28;20695;-80
2022/05/11 02:50:38;;;;;;;10.73;5.18;;;;;;;;;;5102675;28;20039;-76
2022/05/11 02:53:09;;;;;;;10.43;5.07;;;;;;;;;;5102897;28;20031;-74
2022/05/11 02:55:39;;;;;;;7.65;5.20;;;;;;;;;;5102723;28;20024;-75
2022/05/11 02:58:06;;;;;;;9.35;5.47;;;;;;;;;;5100611;28;20016;-76
2022/05/11 03:00:33;;;;;;;8.80;4.95;;;;;;;;;;5102633;28;20028;-74
2022/05/11 03:03:00;;;;;;;7.68;5.03;;;;;;;;;;5102224;28;20028;-74
2022/05/11 03:05:26;;;;;;;9.05;5.60;;;;;;;;;;5102646;28;20924;-76
2022/05/11 03:07:52;;;;;;;10.00;5.20;;;;;;;;;;5102483;28;20031;-77
2022/05/11 03:10:19;;;;;;;8.23;4.95;;;;;;;;;;5099401;28;20031;-76
2022/05/11 03:12:45;;;;;;;7.70;4.78;;;;;;;;;;5104422;28;20023;-77
2022/05/11 03:15:11;;;;;;;9.98;5.63;;;;;;;;;;5105655;28;20024;-78
2022/05/11 03:17:37;;;;;;;10.43;5.20;;;;;;;;;;5090240;28;20501;-78
2022/05/11 03:20:07;;;;;;;9.13;5.80;;;;;;;;;;5083158;28;20098;-75
2022/05/11 03:22:34;;;;;;;12.45;5.72;;;;;;;;;;5079645;28;20028;-74
2022/05/11 03:25:00;;;;;;;10.02;5.40;;;;;;;;;;5083106;28;20032;-78
2022/05/11 03:27:26;;;;;;;11.50;5.47;;;;;;;;;;5082619;28;20035;-77
2022/05/11 03:29:53;;;;;;;9.18;5.32;;;;;;;;;;5080995;28;20032;-75
2022/05/11 03:35:05;;;;;;;11.23;5.30;;;;;;;;;;5083061;28;20042;-78
2022/05/11 03:37:33;;;;;;;8.80;5.20;;;;;;;;;;5081599;28;20031;-75
2022/05/11 03:40:00;;;;;;;6.70;5.22;;;;;;;;;;5082500;28;20042;-74
2022/05/11 03:42:30;;;;;;;9.98;5.05;;;;;;;;;;5083021;28;20031;-76
2022/05/11 03:44:56;;;;;;;9.85;4.90;;;;;;;;;;5081371;28;20028;-73
2022/05/11 03:47:22;;;;;;;8.20;5.47;;;;;;;;;;5082419;28;20024;-74
2022/05/11 03:49:49;;;;;;;13.20;5.35;;;;;;;;;;5082381;28;20032;-74
2022/05/11 03:52:17;;;;;;;8.82;4.90;;;;;;;;;;5081932;28;20577;-80
2022/05/11 03:54:44;;;;;;;9.63;5.47;;;;;;;;;;5081057;28;20047;-74
2022/05/11 03:57:10;;;;;;;10.20;5.63;;;;;;;;;;5081883;28;20035;-74
2022/05/11 03:59:36;;;;;;;12.15;6.15;;;;;;;;;;5082363;28;20036;-74
2022/05/11 04:02:02;;;;;;;10.77;4.75;;;;;;;;;;5082294;28;20028;-77
2022/05/11 04:04:28;;;;;;;10.02;5.72;;;;;;;;;;5080346;28;20028;-80
2022/05/11 04:06:54;;;;;;;12.15;5.43;;;;;;;;;;5082949;28;20028;-75
2022/05/11 04:09:21;;;;;;;8.95;5.22;;;;;;;;;;5082120;28;20047;-75
2022/05/11 04:11:47;;;;;;;10.27;5.10;;;;;;;;;;5081319;28;20028;-74
2022/05/11 04:14:13;;;;;;;6.32;5.13;;;;;;;;;;5081916;28;20036;-76
2022/05/11 04:16:39;;;;;;;9.90;5.18;;;;;;;;;;5081709;28;20024;-77
2022/05/11 04:19:05;;;;;;;17.52;5.45;;;;;;;;;;5083108;28;20620;-79
2022/05/11 04:21:31;;;;;;;10.00;5.47;;;;;;;;;;5102044;28;20020;-75
2022/05/11 04:23:57;;;;;;;8.65;5.57;;;;;;;;;;5100097;28;20047;-74
2022/05/11 04:26:24;;;;;;;8.18;4.93;;;;;;;;;;5100763;28;20622;-74
2022/05/11 04:28:50;;;;;;;11.73;5.55;;;;;;;;;;5102272;28;20030;-80
2022/05/11 04:31:16;;;;;;;9.45;5.65;;;;;;;;;;5102552;28;20031;-75
2022/05/11 04:33:42;;;;;;;9.45;5.53;;;;;;;;;;5092439;28;20020;-75
2022/05/11 04:36:08;;;;;;;11.40;5.72;;;;;;;;;;5081437;28;20506;-78
2022/05/11 04:38:34;;;;;;;11.45;6.22;;;;;;;;;;5079858;28;20967;-77
2022/05/11 04:41:00;;;;;;;7.05;6.22;;;;;;;;;;5079967;28;20070;-74
2022/05/11 04:43:27;;;;;;;7.38;5.35;;;;;;;;;;5081408;28;20024;-74
2022/05/11 04:45:53;;;;;;;9.48;5.75;;;;;;;;;;5081159;28;20044;-78
2022/05/11 04:48:19;;;;;;;8.40;5.45;;;;;;;;;;5080012;28;20035;-75
2022/05/11 04:50:46;;;;;;;7.82;5.50;;;;;;;;;;5080825;28;20051;-74
2022/05/11 04:53:13;;;;;;;20.73;6.60;;;;;;;;;;5081255;28;20028;-76
2022/05/11 04:55:39;;;;;;;8.88;5.70;;;;;;;;;;5080586;28;20511;-75
2022/05/11 04:58:05;;;;;;;8.60;5.80;;;;;;;;;;5079887;28;20024;-74
2022/05/11 05:00:32;;;;;;;12.93;7.20;;;;;;;;;;5078513;28;20162;-78
2022/05/11 05:03:01;;;;;;;14.02;6.07;;;;;;;;;;5099709;28;20031;-76
2022/05/11 05:05:27;;;;;;;10.25;5.78;;;;;;;;;;5100950;28;20512;-75
2022/05/11 05:07:53;;;;;;;9.20;6.13;;;;;;;;;;5099667;28;20426;-74
2022/05/11 05:10:21;;;;;;;11.73;7.10;;;;;;;;;;5099274;28;20140;-78
2022/05/11 05:12:47;;;;;;;8.85;6.63;;;;;;;;;;5099342;28;20369;-75
2022/05/11 05:15:15;;;;;;;13.02;6.43;;;;;;;;;;5098489;28;20028;-75
2022/05/11 05:17:41;;;;;;;14.45;6.68;;;;;;;;;;5099478;28;20054;-74
2022/05/11 05:20:07;;;;;;;11.07;6.10;;;;;;;;;;5099196;28;20104;-74
2022/05/11 05:22:37;;;;;;;15.20;8.32;;;;;;;;;;5096711;28;20024;-75
2022/05/11 05:25:04;;;;;;;10.77;6.63;;;;;;;;;;5096731;28;20383;-73
2022/05/11 05:27:30;;;;;;;9.02;6.07;;;;;;;;;;5082940;28;20066;-73
2022/05/11 05:32:43;;;;;;;15.63;7.45;;;;;;;;;;5101319;28;20585;-75
2022/05/11 05:35:10;;;;;;;18.98;8.57;;;;;;;;;;5102172;28;20023;-75
2022/05/11 05:37:38;;;;;;;12.07;8.50;;;;;;;;;;5098903;28;20073;-76
2022/05/11 05:40:05;;;;;;;17.75;10.25;;;;;;;;;;5100578;28;20028;-75
2022/05/11 05:42:31;;;;;;;19.45;10.20;;;;;;;;;;5098890;28;20053;-76
2022/05/11 05:44:57;;;;;;;16.23;10.02;;;;;;;;;;5100763;28;20658;-75
2022/05/11 05:47:23;;;;;;;14.77;10.77;;;;;;;;;;5083277;28;20201;-74
2022/05/11 05:49:50;;;;;;;21.33;11.02;;;;;;;;;;5082154;28;20111;-74
2022/05/11 05:52:17;;;;;;;16.73;11.43;;;;;;;;;;5080436;28;20024;-73
2022/05/11 05:54:45;;;;;;;115.50;13.10;;;;;;;;;;5082286;28;20115;-74
2022/05/11 05:57:12;;;;;;;26.25;11.18;;;;;;;;;;5082528;28;20403;-73
2022/05/11 05:59:38;;;;;;;15.90;9.57;;;;;;;;;;5092119;28;20034;-74
2022/05/11 06:02:08;;;;;;;22.67;9.05;;;;;;;;;;5101114;28;20047;-74
2022/05/11 06:04:35;;;;;;;13.18;8.05;;;;;;;;;;5108301;27;20023;-74
2022/05/11 06:07:01;;;;;;;15.45;8.40;;;;;;;;;;5096706;28;20051;-75
2022/05/11 06:09:28;;;;;;;12.18;8.07;;;;;;;;;;5100174;28;20474;-79
2022/05/11 06:11:54;;;;;;;13.82;6.93;;;;;;;;;;5087252;28;20081;-75
2022/05/11 06:14:21;;;;;;;11.35;7.78;;;;;;;;;;5080528;28;20028;-74
2022/05/11 06:16:47;;;;;;;11.73;7.82;;;;;;;;;;5081438;28;20024;-75
2022/05/11 06:19:13;;;;;;;12.45;6.72;;;;;;;;;;5101162;28;20238;-76
2022/05/11 06:21:39;;;;;;;16.52;7.18;;;;;;;;;;5101137;28;20041;-75
2022/05/11 06:24:05;;;;;;;16.45;8.00;;;;;;;;;;5101860;28;20039;-76
2022/05/11 06:26:32;;;;;;;11.23;7.95;;;;;;;;;;5095804;28;20016;-77
2022/05/11 06:28:58;;;;;;;14.75;8.23;;;;;;;;;;5089984;28;20032;-77
2022/05/11 06:31:24;;;;;;;13.25;7.95;;;;;;;;;;5100087;28;20059;-76
2022/05/11 06:33:53;;;;;;;14.35;7.90;;;;;;;;;;5095128;28;20043;-75
2022/05/11 06:36:20;;;;;;;15.77;7.85;;;;;;;;;;5094616;28;20088;-74
2022/05/11 06:38:47;;;;;;;10.30;6.47;;;;;;;;;;5081363;28;20035;-75
2022/05/11 06:41:15;;;;;;;12.75;6.97;;;;;;;;;;5080912;28;20024;-75
2022/05/11 06:43:42;;;;;;;13.85;6.28;;;;;;;;;;5083940;28;20028;-80
2022/05/11 06:46:08;;;;;;;12.13;6.70;;;;;;;;;;5102656;28;20024;-82
2022/05/11 06:48:34;;;;;;;14.32;7.07;;;;;;;;;;5097424;28;20019;-79
2022/05/11 06:51:01;;;;;;;13.18;5.68;;;;;;;;;;5086787;27;20183;-76
2022/05/11 06:53:27;;;;;;;14.30;5.82;;;;;;;;;;5093405;28;20027;-75
2022/05/11 07:01:23;;;;;;;6.95;4.90;;;;;;;;;;5086336;28;20027;-73
2022/05/11 07:03:49;;;;;;;8.65;5.88;;;;;;;;;;5084426;28;20039;-80
2022/05/11 07:06:15;;;;;;;9.85;5.50;;;;;;;;;;5085318;28;20026;-79
2022/05/11 07:08:44;;;;;;;12.00;5.97;;;;;;;;;;5087893;27;20024;-74
2022/05/11 07:13:56;;;;;;;7.10;4.93;;;;;;;;;;5085918;28;20042;-77
2022/05/11 07:16:23;;;;;;;11.80;5.30;;;;;;;;;;5084131;28;20024;-76
2022/05/11 07:18:50;;;;;;;11.00;5.40;;;;;;;;;;5085366;28;20054;-76
2022/05/11 07:21:16;;;;;;;8.68;5.05;;;;;;;;;;5088717;28;20023;-79
2022/05/11 07:23:42;;;;;;;9.32;4.90;;;;;;;;;;5088584;28;20038;-77
2022/05/11 07:26:08;;;;;;;12.00;5.85;;;;;;;;;;5083864;28;20016;-76
2022/05/11 07:28:34;;;;;;;10.38;5.47;;;;;;;;;;5092635;28;20023;-75
2022/05/11 07:31:01;;;;;;;8.23;5.70;;;;;;;;;;5099991;28;20036;-74
2022/05/11 07:33:28;;;;;;;8.32;5.85;;;;;;;;;;5088793;28;20028;-76
2022/05/11 07:35:54;;;;;;;11.32;6.45;;;;;;;;;;5087134;28;20065;-76
2022/05/11 07:38:20;;;;;;;11.15;5.85;;;;;;;;;;5088304;28;20039;-76
2022/05/11 07:40:46;;;;;;;9.95;5.90;;;;;;;;;;5097046;28;20095;-76
2022/05/11 07:43:13;;;;;;;8.60;5.68;;;;;;;;;;5107014;28;20050;-75
2022/05/11 07:45:40;;;;;;;10.20;6.07;;;;;;;;;;5102825;28;20072;-76
2022/05/11 07:48:07;;;;;;;8.75;5.35;;;;;;;;;;5105899;28;20421;-77
2022/05/11 07:50:33;;;;;;;6.20;4.95;;;;;;;;;;5106017;28;20612;-75
2022/05/11 07:53:00;;;;;;;10.57;5.75;;;;;;;;;;5106451;27;20023;-75
2022/05/11 07:55:28;;;;;;;14.32;5.85;;;;;;;;;;5108099;27;20050;-74
2022/05/11 08:00:39;;;;;;;10.02;5.80;;;;;;;;;;5128286;27;20096;-76
2022/05/11 08:03:06;;;;;;;12.90;5.68;;;;;;;;;;5127541;27;20031;-76
2022/05/11 08:05:32;;;;;;;12.95;5.95;;;;;;;;;;5127693;27;20022;-75
2022/05/11 08:08:00;;;;;;;9.88;5.40;;;;;;;;;;5114228;27;20038;-84
2022/05/11 08:10:30;;;;;;;12.35;5.10;;;;;;;;;;5105214;28;20032;-75
2022/05/11 08:12:56;;;;;;;6.95;4.82;;;;;;;;;;5094542;27;20055;-78
2022/05/11 08:15:24;;;;;;;7.63;4.82;;;;;;;;;;5086298;28;20016;-74
2022/05/11 08:17:51;;;;;;;7.50;4.80;;;;;;;;;;5086021;28;20509;-75
2022/05/11 08:20:19;;;;;;;6.60;4.20;;;;;;;;;;5087378;27;20621;-74
2022/05/11 08:22:46;;;;;;;6.65;4.00;;;;;;;;;;5100229;27;20028;-74
2022/05/11 08:25:15;;;;;;;9.02;4.80;;;;;;;;;;5095696;27;20032;-75
2022/05/11 08:27:42;;;;;;;7.80;4.38;;;;;;;;;;5110212;27;20445;-75
2022/05/11 08:35:38;;;;;;;10.20;5.60;;;;;;;;;;5091630;28;20047;-79
2022/05/11 08:38:04;;;;;;;9.38;5.00;;;;;;;;;;5087713;28;20032;-77
2022/05/11 08:40:37;;;;;;;12.50;5.70;;;;;;;;;;5087885;28;20061;-74
2022/05/11 08:43:05;;;;;;;8.63;5.13;;;;;;;;;;5089733;28;20016;-80
2022/05/11 08:45:52;;;;;;;11.68;5.88;;;;;;;;;;5092513;28;20064;-75
2022/05/11 08:48:39;;;;;;;14.95;5.60;;;;;;;;;;5060364;28;20035;-80
2022/05/11 08:51:06;;;;;;;11.10;5.30;;;;;;;;;;5092153;28;20028;-81
2022/05/11 08:53:35;;;;;;;7.35;5.20;;;;;;;;;;5090249;28;20020;-80
2022/05/11 08:56:05;;;;;;;23.52;7.05;;;;;;;;;;5085830;28;20020;-75
2022/05/11 08:58:37;;;;;;;29.30;6.78;;;;;;;;;;5087924;28;20012;-81
2022/05/11 09:01:07;;;;;;;11.73;5.05;;;;;;;;;;5087140;27;20028;-76
2022/05/11 09:03:41;;;;;;;8.00;4.80;;;;;;;;;;5091988;28;20031;-74
2022/05/11 09:06:18;;;;;;;10.40;5.20;;;;;;;;;;5087839;28;20024;-78
2022/05/11 09:08:45;;;;;;;11.68;5.75;;;;;;;;;;5085020;28;20032;-76
2022/05/11 09:11:13;;;;;;;10.70;5.75;;;;;;;;;;5085363;28;20100;-77
2022/05/11 09:13:42;;;;;;;8.07;4.50;;;;;;;;;;5089950;28;20020;-73
2022/05/11 09:16:28;;;;;;;15.98;5.30;;;;;;;;;;5090204;28;20019;-73
2022/05/11 09:18:56;;;;;;;13.07;5.43;;;;;;;;;;5088506;27;20039;-72
2022/05/11 09:21:29;;;;;;;8.07;4.80;;;;;;;;;;5088021;27;20054;-74
2022/05/11 09:24:10;;;;;;;18.27;6.25;;;;;;;;;;5087892;27;20079;-76
2022/05/11 09:26:41;;;;;;;9.80;5.22;;;;;;;;;;5093365;28;20028;-79
2022/05/11 09:29:16;;;;;;;8.77;5.20;;;;;;;;;;5090556;28;20107;-77
2022/05/11 09:31:43;;;;;;;11.50;4.97;;;;;;;;;;5087689;27;20027;-77
2022/05/11 09:34:12;;;;;;;10.45;4.35;;;;;;;;;;5097636;27;20073;-75
2022/05/11 09:36:42;;;;;;;12.10;5.97;;;;;;;;;;5084726;28;20031;-76
2022/05/11 09:39:13;;;;;;;8.70;4.45;;;;;;;;;;5091116;28;20082;-74
2022/05/11 09:41:51;;;;;;;11.10;5.57;;;;;;;;;;5084576;28;20439;-72
2022/05/11 09:44:17;;;;;;;12.00;4.80;;;;;;;;;;5086419;28;20027;-72
2022/05/11 09:46:43;;;;;;;15.25;4.95;;;;;;;;;;5086994;27;20546;-74
2022/05/11 09:49:35;;;;;;;11.40;5.45;;;;;;;;;;5086266;28;20483;-72
2022/05/11 09:52:03;;;;;;;13.93;5.60;;;;;;;;;;5090903;27;20511;-81
2022/05/11 09:54:38;;;;;;;8.27;4.35;;;;;;;;;;5100400;28;20024;-76
2022/05/11 09:57:11;;;;;;;10.40;4.80;;;;;;;;;;5086894;28;20038;-76
2022/05/11 09:59:37;;;;;;;10.27;4.85;;;;;;;;;;5082886;28;20962;-76
2022/05/11 10:02:16;;;;;;;7.20;4.60;;;;;;;;;;5082308;28;20030;-76
2022/05/11 10:04:44;;;;;;;10.38;4.90;;;;;;;;;;5086939;28;20496;-76
2022/05/11 10:07:13;;;;;;;9.88;4.07;;;;;;;;;;5086781;28;20641;-75
2022/05/11 10:09:41;;;;;;;8.70;4.20;;;;;;;;;;5087649;28;20020;-74
2022/05/11 10:12:11;;;;;;;9.20;4.30;;;;;;;;;;5101510;27;20035;-75
2022/05/11 10:22:54;;;;;;;10.05;4.30;;;;;;;;;;5083599;28;20078;-74
2022/05/11 10:25:25;;;;;;;14.18;5.32;;;;;;;;;;5085352;28;20283;-73
2022/05/11 10:28:05;;;;;;;14.40;5.45;;;;;;;;;;5103309;28;20626;-73
2022/05/11 10:30:40;;;;;;;8.43;4.63;;;;;;;;;;5094552;28;20269;-74
2022/05/11 10:33:09;;;;;;;6.10;4.80;;;;;;;;;;5101189;28;20043;-72
2022/05/11 10:35:50;;;;;;;13.90;5.45;;;;;;;;;;5097830;28;20028;-73
2022/05/11 10:38:25;;;;;;;12.67;5.80;;;;;;;;;;5091126;28;20023;-73
2022/05/11 10:40:54;;;;;;;10.25;5.05;;;;;;;;;;5084478;28;20111;-73
2022/05/11 10:43:29;;;;;;;8.02;4.28;;;;;;;;;;5084274;28;20028;-74
2022/05/11 10:46:05;;;;;;;9.43;5.05;;;;;;;;;;5102756;28;20020;-74
2022/05/11 10:48:45;;;;;;;8.43;4.63;;;;;;;;;;5091270;28;20060;-74
2022/05/11 10:51:17;;;;;;;15.20;5.70;;;;;;;;;;5085275;28;20050;-73
2022/05/11 10:53:43;;;;;;;;;;;;;;;;;;5088655;28;20036;-73
2022/05/11 10:56:09;;;;;;;8.32;4.03;;;;;;;;;;5096700;28;19956;-73
2022/05/11 10:58:54;;;;;;;6.80;4.60;;;;;;;;;;5088661;28;20055;-72
2022/05/11 11:01:24;;;;;;;8.45;4.93;;;;;;;;;;5080104;28;20484;-74
2022/05/11 11:03:53;;;;;;;8.05;4.03;;;;;;;;;;5080458;28;20047;-79
2022/05/11 11:09:37;;;;;;;6.22;4.80;;;;;;;;;;5100927;28;20837;-75
2022/05/11 11:12:22;;;;;;;12.07;4.55;;;;;;;;;;5099230;28;20036;-73
2022/05/11 11:14:51;;;;;;;10.95;5.63;;;;;;;;;;5090442;28;20020;-75
2022/05/11 11:17:21;;;;;;;10.75;4.45;;;;;;;;;;5098901;28;20533;-74
2022/05/11 11:19:52;;;;;;;7.10;4.40;;;;;;;;;;5090351;28;20048;-73
2022/05/11 11:22:18;;;;;;;9.10;5.28;;;;;;;;;;5088728;28;20023;-73
2022/05/11 11:25:04;;;;;;;5.82;4.28;;;;;;;;;;5089969;28;20036;-73
2022/05/11 11:27:49;;;;;;;8.82;4.25;;;;;;;;;;5089185;28;20024;-78
2022/05/11 11:30:17;;;;;;;7.60;4.05;;;;;;;;;;5097147;28;20063;-76
2022/05/11 11:33:02;;;;;;;7.00;4.85;;;;;;;;;;5086698;28;20670;-74
2022/05/11 11:35:28;;;;;;;10.63;5.32;;;;;;;;;;5092437;28;20036;-74
2022/05/11 11:38:01;;;;;;;7.30;4.85;;;;;;;;;;5093556;28;20024;-75
2022/05/11 11:40:29;;;;;;;8.93;5.10;;;;;;;;;;5087865;28;20027;-74
2022/05/11 11:42:55;;;;;;;8.68;5.70;;;;;;;;;;5102920;27;20099;-75
2022/05/11 11:45:29;;;;;;;9.02;4.78;;;;;;;;;;5122333;27;20038;-74
2022/05/11 11:48:05;;;;;;;7.20;4.35;;;;;;;;;;5108531;27;20102;-74
2022/05/11 11:50:44;;;;;;;8.77;4.60;;;;;;;;;;5100728;28;20047;-74
2022/05/11 11:53:12;;;;;;;8.65;4.65;;;;;;;;;;5092639;28;20042;-74
2022/05/11 11:55:38;;;;;;;7.50;4.05;;;;;;;;;;5091834;28;20104;-73
2022/05/11 11:58:23;;;;;;;8.43;4.30;;;;;;;;;;5088749;28;20016;-74
2022/05/11 12:00:49;;;;;;;7.57;3.83;;;;;;;;;;5083720;28;20039;-74
2022/05/11 12:03:17;;;;;;;5.00;3.60;;;;;;;;;;5090639;28;20068;-74
2022/05/11 12:05:48;;;;;;;5.30;3.85;;;;;;;;;;5081982;28;20056;-74
2022/05/11 12:16:44;;;;;;;7.60;4.30;;;;;;;;;;5086481;28;20474;-74
2022/05/11 12:19:12;;;;;;;7.47;4.63;;;;;;;;;;5089809;27;20054;-75
2022/05/11 12:21:39;;;;;;;5.53;4.15;;;;;;;;;;5092155;28;20023;-74
2022/05/11 12:24:08;;;;;;;10.77;3.80;;;;;;;;;;5082443;28;20020;-76
2022/05/11 12:26:36;;;;;;;9.32;4.40;;;;;;;;;;5080786;28;21026;-74
2022/05/11 12:31:52;;;;;;;5.32;3.58;;;;;;;;;;5097152;28;20675;-74
2022/05/11 12:34:21;;;;;;;5.60;3.30;;;;;;;;;;5084861;28;20023;-73
2022/05/11 12:36:49;;;;;;;8.20;3.90;;;;;;;;;;5079002;28;20115;-74
2022/05/11 12:39:15;;;;;;;5.07;3.55;;;;;;;;;;5080514;28;20113;-74
2022/05/11 12:41:44;;;;;;;7.60;3.97;;;;;;;;;;5092443;28;20031;-74
2022/05/11 12:44:25;;;;;;;7.88;3.88;;;;;;;;;;5096464;27;20487;-75
2022/05/11 12:46:54;;;;;;;9.65;4.22;;;;;;;;;;5079934;28;20054;-76
2022/05/11 12:49:20;;;;;;;7.47;4.05;;;;;;;;;;5090444;28;20550;-75
2022/05/11 12:52:05;;;;;;;7.75;3.90;;;;;;;;;;5083979;28;20039;-75
2022/05/11 12:54:32;;;;;;;6.22;4.03;;;;;;;;;;5091768;28;20035;-75
2022/05/11 12:57:02;;;;;;;7.65;4.13;;;;;;;;;;5097183;28;20085;-75
2022/05/11 12:59:29;;;;;;;5.07;3.65;;;;;;;;;;5093209;27;20410;-75
2022/05/11 13:02:14;;;;;;;6.05;3.83;;;;;;;;;;5099774;27;20027;-74
2022/05/11 13:04:53;;;;;;;5.10;3.75;;;;;;;;;;5098443;27;20122;-75
2022/05/11 13:07:40;;;;;;;11.02;4.15;;;;;;;;;;5097549;28;20095;-75
2022/05/11 13:10:07;;;;;;;6.43;4.00;;;;;;;;;;5068803;28;20671;-74
2022/05/11 13:12:34;;;;;;;9.55;3.97;;;;;;;;;;5085462;28;20034;-75
2022/05/11 13:15:01;;;;;;;6.57;4.43;;;;;;;;;;5082579;28;20028;-74
2022/05/11 13:17:40;;;;;;;10.55;4.45;;;;;;;;;;5097516;28;20023;-75
2022/05/11 13:20:14;;;;;;;7.85;4.57;;;;;;;;;;5090661;28;20062;-75
2022/05/11 13:22:40;;;;;;;8.13;4.18;;;;;;;;;;5098715;28;20031;-76
2022/05/11 13:25:08;;;;;;;8.18;4.68;;;;;;;;;;5086357;28;20089;-75
2022/05/11 13:27:34;;;;;;;8.50;4.85;;;;;;;;;;5080317;28;20032;-76
2022/05/11 13:30:12;;;;;;;6.10;4.22;;;;;;;;;;5079797;28;20036;-77
2022/05/11 13:32:40;;;;;;;7.00;4.00;;;;;;;;;;5080429;28;20099;-76
2022/05/11 13:35:17;;;;;;;8.57;4.47;;;;;;;;;;5080192;28;20035;-75
2022/05/11 13:37:53;;;;;;;7.82;4.38;;;;;;;;;;5082895;28;20189;-76
2022/05/11 13:40:27;;;;;;;8.13;4.53;;;;;;;;;;5096013;28;20031;-76
2022/05/11 13:42:53;;;;;;;7.18;4.70;;;;;;;;;;5089767;28;20101;-76
2022/05/11 13:45:21;;;;;;;5.90;4.10;;;;;;;;;;5080319;28;20089;-76
2022/05/11 13:50:45;;;;;;;10.95;4.57;;;;;;;;;;5084034;28;20510;-76
2022/05/11 13:53:17;;;;;;;8.23;5.05;;;;;;;;;;5081816;28;20031;-76
2022/05/11 13:55:46;;;;;;;8.85;4.97;;;;;;;;;;5089843;27;20031;-75
2022/05/11 13:58:32;;;;;;;9.45;5.13;;;;;;;;;;5096192;27;20020;-75
2022/05/11 14:01:03;;;;;;;9.82;4.93;;;;;;;;;;5077173;28;20024;-75
2022/05/11 14:03:32;;;;;;;10.23;4.70;;;;;;;;;;5078839;28;20039;-74
2022/05/11 14:05:59;;;;;;;8.00;5.03;;;;;;;;;;5094256;28;20415;-75
2022/05/11 14:08:26;;;;;;;6.32;4.60;;;;;;;;;;5095335;28;20031;-74
2022/05/11 14:10:53;;;;;;;7.93;4.55;;;;;;;;;;5094970;28;20051;-74
2022/05/11 14:13:19;;;;;;;11.07;4.63;;;;;;;;;;5098705;28;20158;-74
2022/05/11 14:15:46;;;;;;;6.70;4.10;;;;;;;;;;5097597;28;20368;-73
2022/05/11 14:18:13;;;;;;;6.68;4.30;;;;;;;;;;5091362;28;20546;-74
2022/05/11 14:20:39;;;;;;;7.80;4.63;;;;;;;;;;5081815;28;20031;-74
2022/05/11 14:23:06;;;;;;;5.75;4.25;;;;;;;;;;5084792;28;20020;-75
2022/05/11 14:25:33;;;;;;;11.80;6.03;;;;;;;;;;5093447;28;20017;-74
2022/05/11 14:27:59;;;;;;;12.63;7.15;;;;;;;;;;5095540;28;20525;-74
2022/05/11 14:30:26;;;;;;;9.40;5.10;;;;;;;;;;5105043;28;20047;-74
2022/05/11 14:32:52;;;;;;;6.22;4.15;;;;;;;;;;5097597;28;20122;-74
2022/05/11 14:35:20;;;;;;;6.82;4.22;;;;;;;;;;5120044;28;20038;-75
2022/05/11 14:37:47;;;;;;;10.00;4.47;;;;;;;;;;5110635;28;20757;-74
2022/05/11 14:40:14;;;;;;;10.27;4.88;;;;;;;;;;5098156;28;20055;-75
2022/05/11 14:42:40;;;;;;;7.35;4.03;;;;;;;;;;5096569;28;20701;-73
2022/05/11 14:45:07;;;;;;;6.28;4.18;;;;;;;;;;5099477;28;20085;-74
2022/05/11 14:47:34;;;;;;;5.45;4.03;;;;;;;;;;5098942;28;20110;-74
2022/05/11 14:50:00;;;;;;;9.05;4.22;;;;;;;;;;5087468;28;20559;-73
2022/05/11 14:52:27;;;;;;;8.95;4.28;;;;;;;;;;5083678;28;20019;-74
2022/05/11 14:54:53;;;;;;;12.60;4.72;;;;;;;;;;5098139;28;20537;-73
2022/05/11 15:02:51;;;;;;;11.00;4.68;;;;;;;;;;5082594;28;20567;-74
2022/05/11 15:05:17;;;;;;;7.68;4.50;;;;;;;;;;5096445;28;20051;-76
2022/05/11 15:07:44;;;;;;;8.05;4.00;;;;;;;;;;5092591;27;20035;-75
2022/05/11 15:10:10;;;;;;;7.95;4.18;;;;;;;;;;5103965;27;20585;-75
2022/05/11 15:15:25;;;;;;;6.32;4.15;;;;;;;;;;5083515;28;20039;-76
2022/05/11 15:17:51;;;;;;;9.50;3.88;;;;;;;;;;5098567;28;20033;-73
2022/05/11 15:20:19;;;;;;;10.10;4.82;;;;;;;;;;5090644;28;20492;-74
2022/05/11 15:22:45;;;;;;;7.80;4.20;;;;;;;;;;5101516;28;20138;-74
2022/05/11 15:25:12;;;;;;;9.32;4.63;;;;;;;;;;5089260;28;20294;-73
2022/05/11 15:27:39;;;;;;;5.57;3.78;;;;;;;;;;5102884;28;20106;-74
2022/05/11 15:30:06;;;;;;;9.80;4.40;;;;;;;;;;5086846;28;20039;-77
2022/05/11 15:32:33;;;;;;;7.13;4.30;;;;;;;;;;5087265;28;20028;-74
2022/05/11 15:34:59;;;;;;;11.88;5.05;;;;;;;;;;5083634;28;20024;-74
2022/05/11 15:37:26;;;;;;;7.13;4.60;;;;;;;;;;5089538;28;20653;-74
2022/05/11 15:39:52;;;;;;;6.20;4.53;;;;;;;;;;5091839;28;20047;-75
2022/05/11 15:42:23;;;;;;;8.18;4.13;;;;;;;;;;5084385;28;20024;-75
2022/05/11 15:44:50;;;;;;;7.70;4.20;;;;;;;;;;5084895;28;20103;-77
2022/05/11 15:47:16;;;;;;;6.03;4.05;;;;;;;;;;5095485;28;20110;-74